Time;durP1;ratioP1;P1;durP2;ratioP2;P2;SDS_P1;SDS_P2;PMS_P1;PMS_P2;Temp;Humidity;BMP_temperature;BMP_pressure;BME280_temperature;BME280_humidity;BME280_pressure;Samples;Min_cycle;Max_cycle;Signal;HPM_P1;HPM_P2
2024/02/06 00:00:32;;;;;;;14.15;4.07;;;;;;;;;;5081399;28;20036;-76
2024/02/06 00:02:57;;;;;;;17.15;3.95;;;;;;;;;;5074498;28;20093;-76
2024/02/06 00:05:23;;;;;;;16.23;4.15;;;;;;;;;;5080286;28;20620;-76
2024/02/06 00:07:48;;;;;;;12.20;2.80;;;;;;;;;;5087455;28;20115;-76
2024/02/06 00:10:13;;;;;;;13.90;3.17;;;;;;;;;;5077243;28;20032;-76
2024/02/06 00:12:39;;;;;;;10.52;3.30;;;;;;;;;;5082477;28;20766;-76
2024/02/06 00:15:04;;;;;;;13.90;3.13;;;;;;;;;;5084624;28;20024;-76
2024/02/06 00:17:29;;;;;;;8.93;2.72;;;;;;;;;;5085062;28;20108;-76
2024/02/06 00:19:55;;;;;;;10.98;3.25;;;;;;;;;;5088336;28;20032;-76
2024/02/06 00:22:20;;;;;;;11.60;3.20;;;;;;;;;;5091695;28;20082;-76
2024/02/06 00:24:48;;;;;;;10.15;2.90;;;;;;;;;;5088323;28;20039;-76
2024/02/06 00:27:14;;;;;;;13.95;3.45;;;;;;;;;;5083213;28;20044;-76
2024/02/06 00:29:39;;;;;;;11.87;3.40;;;;;;;;;;5084836;28;20085;-76
2024/02/06 00:32:05;;;;;;;10.95;3.10;;;;;;;;;;5086286;28;20639;-76
2024/02/06 00:34:30;;;;;;;16.98;3.30;;;;;;;;;;5091446;28;20027;-77
2024/02/06 00:36:56;;;;;;;11.40;2.92;;;;;;;;;;5088763;28;20411;-77
2024/02/06 00:39:21;;;;;;;11.87;3.10;;;;;;;;;;5088718;28;20704;-76
2024/02/06 00:41:46;;;;;;;16.83;3.65;;;;;;;;;;5086776;28;20272;-77
2024/02/06 00:44:11;;;;;;;11.82;4.72;;;;;;;;;;5084106;28;20467;-76
2024/02/06 00:46:36;;;;;;;14.13;2.80;;;;;;;;;;5084742;28;20119;-76
2024/02/06 00:49:02;;;;;;;12.73;3.58;;;;;;;;;;5089406;28;20028;-77
2024/02/06 00:51:27;;;;;;;11.98;3.25;;;;;;;;;;5089300;28;20456;-76
2024/02/06 00:53:52;;;;;;;15.75;4.13;;;;;;;;;;5085876;28;20036;-77
2024/02/06 00:56:17;;;;;;;18.00;4.05;;;;;;;;;;5086215;28;20114;-76
2024/02/06 00:58:43;;;;;;;11.43;2.78;;;;;;;;;;5083160;28;20100;-76
2024/02/06 01:01:08;;;;;;;12.52;2.97;;;;;;;;;;5085015;28;20052;-76
2024/02/06 01:03:33;;;;;;;8.85;2.92;;;;;;;;;;5089710;28;20624;-76
2024/02/06 01:05:58;;;;;;;11.40;3.08;;;;;;;;;;5087212;28;20039;-77
2024/02/06 01:08:24;;;;;;;12.88;2.70;;;;;;;;;;5087715;28;20059;-77
2024/02/06 01:10:49;;;;;;;16.17;3.15;;;;;;;;;;5078798;28;20032;-77
2024/02/06 01:13:14;;;;;;;13.38;3.38;;;;;;;;;;5075950;28;20600;-77
2024/02/06 01:15:39;;;;;;;12.27;3.35;;;;;;;;;;5087853;28;20544;-77
2024/02/06 01:18:04;;;;;;;12.05;4.28;;;;;;;;;;5081372;28;20041;-77
2024/02/06 01:20:30;;;;;;;13.73;2.92;;;;;;;;;;5079933;28;20396;-77
2024/02/06 01:22:55;;;;;;;12.52;3.92;;;;;;;;;;5083809;28;20037;-77
2024/02/06 01:25:20;;;;;;;14.23;3.67;;;;;;;;;;5084978;28;20032;-77
2024/02/06 01:27:45;;;;;;;11.82;3.20;;;;;;;;;;5081160;28;20044;-77
2024/02/06 01:30:11;;;;;;;12.95;3.55;;;;;;;;;;5087649;28;20064;-77
2024/02/06 01:32:36;;;;;;;9.75;3.20;;;;;;;;;;5091542;28;20466;-77
2024/02/06 01:35:01;;;;;;;10.65;3.10;;;;;;;;;;5085521;28;20515;-77
2024/02/06 01:37:27;;;;;;;11.85;3.17;;;;;;;;;;5086157;28;20471;-78
2024/02/06 01:39:52;;;;;;;14.18;3.45;;;;;;;;;;5082284;28;20404;-77
2024/02/06 01:42:17;;;;;;;16.27;4.10;;;;;;;;;;5087994;28;20020;-77
2024/02/06 01:44:43;;;;;;;12.00;3.47;;;;;;;;;;5088282;28;20020;-77
2024/02/06 01:47:08;;;;;;;9.57;2.92;;;;;;;;;;5088150;28;20073;-77
2024/02/06 01:49:34;;;;;;;7.25;2.92;;;;;;;;;;5086783;28;20031;-77
2024/02/06 01:52:00;;;;;;;12.90;3.20;;;;;;;;;;5083080;28;20488;-77
2024/02/06 01:54:25;;;;;;;14.98;3.67;;;;;;;;;;5083671;28;20034;-77
2024/02/06 01:56:52;;;;;;;9.15;3.38;;;;;;;;;;5085670;28;20478;-77
2024/02/06 01:59:17;;;;;;;15.82;4.03;;;;;;;;;;5089525;28;20190;-77
2024/02/06 02:01:43;;;;;;;14.15;4.03;;;;;;;;;;5088198;28;20199;-76
2024/02/06 02:04:09;;;;;;;13.25;4.00;;;;;;;;;;5085732;28;20036;-76
2024/02/06 02:06:34;;;;;;;13.77;3.95;;;;;;;;;;5084485;28;20032;-76
2024/02/06 02:08:59;;;;;;;14.10;3.72;;;;;;;;;;5080056;28;20024;-76
2024/02/06 02:11:24;;;;;;;11.95;3.47;;;;;;;;;;5090119;28;20031;-76
2024/02/06 02:13:52;;;;;;;11.77;3.90;;;;;;;;;;5087844;28;20020;-76
2024/02/06 02:16:19;;;;;;;13.75;3.90;;;;;;;;;;5086519;28;20107;-76
2024/02/06 02:18:45;;;;;;;10.75;4.05;;;;;;;;;;5083312;28;20081;-76
2024/02/06 02:21:10;;;;;;;10.80;4.20;;;;;;;;;;5082288;28;20040;-76
2024/02/06 02:23:43;;;;;;;9.85;3.47;;;;;;;;;;5080615;28;20115;-76
2024/02/06 02:26:09;;;;;;;13.23;4.35;;;;;;;;;;5088626;28;20553;-76
2024/02/06 02:28:38;;;;;;;9.82;3.72;;;;;;;;;;5088042;28;20043;-77
2024/02/06 02:31:05;;;;;;;14.18;4.70;;;;;;;;;;5082844;28;20512;-77
2024/02/06 02:33:30;;;;;;;12.60;4.25;;;;;;;;;;5084286;28;20025;-77
2024/02/06 02:35:55;;;;;;;12.75;3.95;;;;;;;;;;5070448;28;20130;-77
2024/02/06 02:38:21;;;;;;;16.70;4.63;;;;;;;;;;5081723;28;20084;-76
2024/02/06 02:40:46;;;;;;;15.82;4.07;;;;;;;;;;5089341;28;20035;-76
2024/02/06 02:43:11;;;;;;;13.38;4.40;;;;;;;;;;5075742;28;20036;-77
2024/02/06 02:45:37;;;;;;;10.95;3.67;;;;;;;;;;5081897;28;20042;-77
2024/02/06 02:48:02;;;;;;;17.33;4.00;;;;;;;;;;5081361;28;20028;-77
2024/02/06 02:50:27;;;;;;;11.00;3.60;;;;;;;;;;5082456;28;20028;-77
2024/02/06 02:52:53;;;;;;;16.73;4.38;;;;;;;;;;5085486;28;20039;-76
2024/02/06 02:55:18;;;;;;;12.50;4.10;;;;;;;;;;5087369;28;20020;-77
2024/02/06 02:57:43;;;;;;;17.00;4.65;;;;;;;;;;5086623;28;20123;-77
2024/02/06 03:00:09;;;;;;;13.38;4.68;;;;;;;;;;5064973;28;20024;-77
2024/02/06 03:02:34;;;;;;;15.20;5.25;;;;;;;;;;5084299;28;20024;-77
2024/02/06 03:05:00;;;;;;;16.33;4.68;;;;;;;;;;5078908;28;20031;-77
2024/02/06 03:07:26;;;;;;;11.63;3.70;;;;;;;;;;5087613;28;20024;-77
2024/02/06 03:09:51;;;;;;;14.88;4.40;;;;;;;;;;5086737;28;20027;-77
2024/02/06 03:12:16;;;;;;;12.02;4.07;;;;;;;;;;5085122;28;20115;-77
2024/02/06 03:14:41;;;;;;;9.60;4.30;;;;;;;;;;5083712;28;20456;-77
2024/02/06 03:17:06;;;;;;;13.00;4.25;;;;;;;;;;5080911;28;20036;-77
2024/02/06 03:19:32;;;;;;;11.40;4.00;;;;;;;;;;5081842;28;20051;-77
2024/02/06 03:21:57;;;;;;;17.05;4.32;;;;;;;;;;5086105;28;20285;-77
2024/02/06 03:24:27;;;;;;;11.32;4.28;;;;;;;;;;5086964;28;20028;-77
2024/02/06 03:26:53;;;;;;;12.38;4.28;;;;;;;;;;5082681;28;20492;-77
2024/02/06 03:29:18;;;;;;;12.70;3.67;;;;;;;;;;5083475;28;20024;-77
2024/02/06 03:31:44;;;;;;;12.30;4.18;;;;;;;;;;5082540;28;20040;-77
2024/02/06 03:34:09;;;;;;;13.05;4.90;;;;;;;;;;5085024;28;20561;-77
2024/02/06 03:36:34;;;;;;;9.73;3.80;;;;;;;;;;5088001;28;20115;-77
2024/02/06 03:39:00;;;;;;;11.52;4.13;;;;;;;;;;5084692;28;20408;-77
2024/02/06 03:41:26;;;;;;;8.68;3.78;;;;;;;;;;5083401;28;20047;-77
2024/02/06 03:43:51;;;;;;;15.90;3.85;;;;;;;;;;5081026;28;20032;-77
2024/02/06 03:46:16;;;;;;;9.60;3.97;;;;;;;;;;5083058;28;20020;-77
2024/02/06 03:48:41;;;;;;;15.10;4.75;;;;;;;;;;5088763;28;20521;-77
2024/02/06 03:51:07;;;;;;;12.18;4.75;;;;;;;;;;5091616;28;20024;-77
2024/02/06 03:53:32;;;;;;;9.50;4.05;;;;;;;;;;5089583;28;20050;-77
2024/02/06 03:55:57;;;;;;;12.85;4.13;;;;;;;;;;5086107;28;20036;-77
2024/02/06 03:58:22;;;;;;;12.15;4.43;;;;;;;;;;5086792;28;20038;-77
2024/02/06 04:00:50;;;;;;;14.02;3.72;;;;;;;;;;5085491;28;20083;-77
2024/02/06 04:03:18;;;;;;;12.40;3.72;;;;;;;;;;5082676;28;20405;-77
2024/02/06 04:05:44;;;;;;;10.98;3.53;;;;;;;;;;5082590;28;20052;-76
2024/02/06 04:08:09;;;;;;;11.77;3.47;;;;;;;;;;5087035;28;20073;-77
2024/02/06 04:10:34;;;;;;;10.70;3.20;;;;;;;;;;5079335;28;20029;-77
2024/02/06 04:12:59;;;;;;;7.28;3.33;;;;;;;;;;5078728;28;20033;-76
2024/02/06 04:15:24;;;;;;;10.48;2.95;;;;;;;;;;5084722;28;20015;-77
2024/02/06 04:17:50;;;;;;;8.63;3.47;;;;;;;;;;5091670;28;20072;-77
2024/02/06 04:20:15;;;;;;;11.98;3.30;;;;;;;;;;5088490;28;20056;-77
2024/02/06 04:22:40;;;;;;;9.88;3.00;;;;;;;;;;5086214;28;20030;-77
2024/02/06 04:25:06;;;;;;;8.77;3.67;;;;;;;;;;5085040;28;20467;-77
2024/02/06 04:27:31;;;;;;;12.20;2.92;;;;;;;;;;5084351;28;20063;-77
2024/02/06 04:29:57;;;;;;;8.10;3.00;;;;;;;;;;5088594;28;20399;-77
2024/02/06 04:32:22;;;;;;;10.15;2.42;;;;;;;;;;5091530;28;20270;-77
2024/02/06 04:34:49;;;;;;;9.77;3.00;;;;;;;;;;5089140;28;20032;-78
2024/02/06 04:37:15;;;;;;;8.40;2.35;;;;;;;;;;5085277;28;20040;-77
2024/02/06 04:39:40;;;;;;;9.73;3.13;;;;;;;;;;5089773;28;20024;-77
2024/02/06 04:42:05;;;;;;;7.25;2.88;;;;;;;;;;5084912;28;20472;-77
2024/02/06 04:44:31;;;;;;;10.65;2.67;;;;;;;;;;5091567;28;20057;-77
2024/02/06 04:46:57;;;;;;;7.72;2.22;;;;;;;;;;5089442;28;20076;-77
2024/02/06 04:49:22;;;;;;;11.15;2.60;;;;;;;;;;5088648;28;20019;-77
2024/02/06 04:51:48;;;;;;;9.65;3.00;;;;;;;;;;5087109;28;20039;-77
2024/02/06 04:54:13;;;;;;;8.77;2.28;;;;;;;;;;5085351;28;20032;-77
2024/02/06 04:56:38;;;;;;;7.00;2.10;;;;;;;;;;5082552;28;20035;-77
2024/02/06 04:59:03;;;;;;;7.15;2.05;;;;;;;;;;5082405;28;20064;-77
2024/02/06 05:01:29;;;;;;;10.20;3.30;;;;;;;;;;5089090;28;20035;-77
2024/02/06 05:03:54;;;;;;;8.30;2.47;;;;;;;;;;5088307;28;20044;-78
2024/02/06 05:06:19;;;;;;;6.47;2.53;;;;;;;;;;5085819;28;20119;-77
2024/02/06 05:08:44;;;;;;;5.13;1.77;;;;;;;;;;5079819;28;20506;-77
2024/02/06 05:11:11;;;;;;;6.65;2.15;;;;;;;;;;5085289;28;20059;-77
2024/02/06 05:13:37;;;;;;;7.70;2.38;;;;;;;;;;5090092;28;20074;-78
2024/02/06 05:16:02;;;;;;;10.32;2.50;;;;;;;;;;5087306;28;20036;-77
2024/02/06 05:18:27;;;;;;;9.45;2.45;;;;;;;;;;5087558;28;20040;-77
2024/02/06 05:20:55;;;;;;;9.38;1.95;;;;;;;;;;5083646;28;20056;-78
2024/02/06 05:23:20;;;;;;;6.82;2.13;;;;;;;;;;5084424;28;20042;-78
2024/02/06 05:25:46;;;;;;;5.68;1.90;;;;;;;;;;5090439;28;20123;-78
2024/02/06 05:28:11;;;;;;;7.28;2.08;;;;;;;;;;5090545;28;20024;-78
2024/02/06 05:30:36;;;;;;;5.50;2.03;;;;;;;;;;5087438;28;20043;-77
2024/02/06 05:33:02;;;;;;;6.07;1.95;;;;;;;;;;5085702;28;20032;-78
2024/02/06 05:35:27;;;;;;;8.10;2.50;;;;;;;;;;5086307;28;20032;-77
2024/02/06 05:37:52;;;;;;;7.67;1.97;;;;;;;;;;5086510;28;20152;-78
2024/02/06 05:40:17;;;;;;;6.53;1.90;;;;;;;;;;5085734;28;20282;-78
2024/02/06 05:42:42;;;;;;;7.68;2.03;;;;;;;;;;5078495;28;20408;-78
2024/02/06 05:45:08;;;;;;;5.88;1.98;;;;;;;;;;5085582;28;20100;-78
2024/02/06 05:47:33;;;;;;;6.72;2.40;;;;;;;;;;5086086;28;20020;-78
2024/02/06 05:49:59;;;;;;;3.28;1.50;;;;;;;;;;5080675;28;20386;-78
2024/02/06 05:52:24;;;;;;;6.38;2.10;;;;;;;;;;5087551;28;20119;-78
2024/02/06 05:54:49;;;;;;;4.78;1.65;;;;;;;;;;5084709;28;20051;-78
2024/02/06 05:57:14;;;;;;;6.35;2.03;;;;;;;;;;5086055;28;20098;-78
2024/02/06 05:59:40;;;;;;;6.45;1.80;;;;;;;;;;5074339;28;20024;-78
2024/02/06 06:02:05;;;;;;;7.57;2.35;;;;;;;;;;5080593;28;20032;-78
2024/02/06 06:04:30;;;;;;;6.90;1.90;;;;;;;;;;5080310;28;20040;-78
2024/02/06 06:06:55;;;;;;;6.85;1.70;;;;;;;;;;5083461;28;20024;-78
2024/02/06 06:09:20;;;;;;;8.43;2.10;;;;;;;;;;5087149;28;20484;-78
2024/02/06 06:11:45;;;;;;;9.98;1.92;;;;;;;;;;5088050;28;20020;-78
2024/02/06 06:14:11;;;;;;;6.13;1.73;;;;;;;;;;5086323;28;20538;-78
2024/02/06 06:16:36;;;;;;;7.27;2.87;;;;;;;;;;5085611;28;20046;-78
2024/02/06 06:19:01;;;;;;;9.30;2.00;;;;;;;;;;5080333;28;20651;-78
2024/02/06 06:21:26;;;;;;;6.13;2.03;;;;;;;;;;5090310;28;20070;-78
2024/02/06 06:23:51;;;;;;;6.70;1.88;;;;;;;;;;5088967;28;20032;-78
2024/02/06 06:26:17;;;;;;;4.18;1.88;;;;;;;;;;5086483;28;20556;-78
2024/02/06 06:28:42;;;;;;;6.05;2.20;;;;;;;;;;5086715;28;20039;-78
2024/02/06 06:31:08;;;;;;;8.05;2.30;;;;;;;;;;5079347;28;20747;-78
2024/02/06 06:33:33;;;;;;;5.70;1.67;;;;;;;;;;5076137;28;20047;-78
2024/02/06 06:35:58;;;;;;;5.43;1.80;;;;;;;;;;5082392;28;20416;-78
2024/02/06 06:38:24;;;;;;;7.97;1.85;;;;;;;;;;5080115;28;20047;-78
2024/02/06 06:40:49;;;;;;;8.32;1.73;;;;;;;;;;5077162;28;20043;-78
2024/02/06 06:43:15;;;;;;;4.80;2.00;;;;;;;;;;5078990;28;20032;-78
2024/02/06 06:45:40;;;;;;;7.10;1.83;;;;;;;;;;5076525;28;20480;-78
2024/02/06 06:48:06;;;;;;;9.55;2.20;;;;;;;;;;5082815;28;20085;-78
2024/02/06 06:50:31;;;;;;;7.13;2.10;;;;;;;;;;5089528;28;20020;-78
2024/02/06 06:52:56;;;;;;;8.50;2.40;;;;;;;;;;5083120;28;20028;-78
2024/02/06 06:55:21;;;;;;;7.85;2.00;;;;;;;;;;5076506;28;20028;-78
2024/02/06 06:57:46;;;;;;;9.73;2.60;;;;;;;;;;5084458;28;20122;-78
2024/02/06 07:00:12;;;;;;;6.40;1.98;;;;;;;;;;5079965;28;20028;-78
2024/02/06 07:02:39;;;;;;;5.53;1.98;;;;;;;;;;5087027;28;20054;-78
2024/02/06 07:05:04;;;;;;;7.15;2.47;;;;;;;;;;5088133;28;20036;-78
2024/02/06 07:07:30;;;;;;;12.27;2.22;;;;;;;;;;5086755;28;20039;-78
2024/02/06 07:09:56;;;;;;;6.90;1.90;;;;;;;;;;5084415;28;20085;-78
2024/02/06 07:12:21;;;;;;;8.10;2.38;;;;;;;;;;5085890;28;20499;-78
2024/02/06 07:14:46;;;;;;;5.43;1.92;;;;;;;;;;5080382;28;20024;-78
2024/02/06 07:17:11;;;;;;;6.63;2.10;;;;;;;;;;5087850;28;20036;-78
2024/02/06 07:19:36;;;;;;;7.45;2.65;;;;;;;;;;5080702;28;20355;-78
2024/02/06 07:22:01;;;;;;;6.63;2.40;;;;;;;;;;5085757;28;20030;-78
2024/02/06 07:24:27;;;;;;;10.82;2.60;;;;;;;;;;5080169;28;20024;-78
2024/02/06 07:26:52;;;;;;;6.20;1.70;;;;;;;;;;5086128;28;20038;-78
2024/02/06 07:29:18;;;;;;;7.45;1.48;;;;;;;;;;5083593;28;20081;-78
2024/02/06 07:31:43;;;;;;;5.15;1.95;;;;;;;;;;5084377;28;20804;-78
2024/02/06 07:34:08;;;;;;;6.97;1.92;;;;;;;;;;5084339;28;20059;-77
2024/02/06 07:36:34;;;;;;;6.10;2.05;;;;;;;;;;5083055;28;20089;-78
2024/02/06 07:38:59;;;;;;;5.07;1.58;;;;;;;;;;5078862;28;20032;-78
2024/02/06 07:41:24;;;;;;;11.07;2.17;;;;;;;;;;5082763;28;20115;-78
2024/02/06 07:43:49;;;;;;;4.87;1.77;;;;;;;;;;5093418;28;20274;-78
2024/02/06 07:46:14;;;;;;;4.65;1.88;;;;;;;;;;5090775;28;20790;-78
2024/02/06 07:48:39;;;;;;;8.32;1.90;;;;;;;;;;5090428;28;20036;-78
2024/02/06 07:51:05;;;;;;;5.57;1.70;;;;;;;;;;5086318;28;20032;-78
2024/02/06 07:53:30;;;;;;;7.57;2.53;;;;;;;;;;5087373;28;20085;-78
2024/02/06 07:55:55;;;;;;;6.97;2.17;;;;;;;;;;5084706;28;20145;-78
2024/02/06 07:58:21;;;;;;;4.70;1.23;;;;;;;;;;5089107;28;20481;-78
2024/02/06 08:00:47;;;;;;;6.22;1.50;;;;;;;;;;5091107;28;20369;-78
2024/02/06 08:03:12;;;;;;;4.40;1.70;;;;;;;;;;5090625;28;20047;-78
2024/02/06 08:05:37;;;;;;;4.88;1.33;;;;;;;;;;5089681;28;20036;-78
2024/02/06 08:08:04;;;;;;;4.50;1.50;;;;;;;;;;5084924;28;20043;-78
2024/02/06 08:10:29;;;;;;;5.05;1.40;;;;;;;;;;5078246;28;20030;-78
2024/02/06 08:12:56;;;;;;;5.57;1.40;;;;;;;;;;5089554;28;20115;-78
2024/02/06 08:15:21;;;;;;;6.28;1.63;;;;;;;;;;5089378;28;20036;-78
2024/02/06 08:17:47;;;;;;;8.43;1.83;;;;;;;;;;5087361;28;20024;-78
2024/02/06 08:20:12;;;;;;;7.15;2.15;;;;;;;;;;5077501;28;20028;-78
2024/02/06 08:22:38;;;;;;;8.23;1.60;;;;;;;;;;5079107;28;20056;-78
2024/02/06 08:25:06;;;;;;;5.93;1.48;;;;;;;;;;5081432;28;20029;-78
2024/02/06 08:27:31;;;;;;;6.03;1.58;;;;;;;;;;5081393;28;21535;-78
2024/02/06 08:29:56;;;;;;;4.88;1.45;;;;;;;;;;5090758;28;20020;-78
2024/02/06 08:32:22;;;;;;;7.10;1.40;;;;;;;;;;5089162;28;20020;-78
2024/02/06 08:34:47;;;;;;;4.20;1.65;;;;;;;;;;5084025;28;20330;-78
2024/02/06 08:37:12;;;;;;;4.30;1.40;;;;;;;;;;5083833;28;20036;-78
2024/02/06 08:39:37;;;;;;;4.55;1.50;;;;;;;;;;5076977;28;20076;-78
2024/02/06 08:42:02;;;;;;;6.90;1.58;;;;;;;;;;5088076;28;20031;-78
2024/02/06 08:44:29;;;;;;;5.97;1.48;;;;;;;;;;5089844;28;20028;-77
2024/02/06 08:46:55;;;;;;;4.60;1.38;;;;;;;;;;5087785;28;20036;-78
2024/02/06 08:49:20;;;;;;;6.03;1.48;;;;;;;;;;5086252;28;20043;-78
2024/02/06 08:51:45;;;;;;;7.10;1.50;;;;;;;;;;5085441;28;20038;-78
2024/02/06 08:54:10;;;;;;;5.80;1.25;;;;;;;;;;5092004;28;20101;-78
2024/02/06 08:56:36;;;;;;;5.57;1.43;;;;;;;;;;5083478;28;20108;-77
2024/02/06 08:59:01;;;;;;;7.45;2.38;;;;;;;;;;5076720;28;20297;-78
2024/02/06 09:01:27;;;;;;;6.25;1.10;;;;;;;;;;5082061;28;20488;-78
2024/02/06 09:03:52;;;;;;;6.18;1.30;;;;;;;;;;5087835;28;20032;-78
2024/02/06 09:06:18;;;;;;;3.85;1.10;;;;;;;;;;5083802;28;20029;-78
2024/02/06 09:08:43;;;;;;;4.72;1.40;;;;;;;;;;5092259;28;20034;-78
2024/02/06 09:11:08;;;;;;;4.95;1.35;;;;;;;;;;5088769;28;20136;-78
2024/02/06 09:13:34;;;;;;;4.30;1.00;;;;;;;;;;5089559;28;20442;-78
2024/02/06 09:16:01;;;;;;;3.70;1.25;;;;;;;;;;5086004;28;20557;-78
2024/02/06 09:18:26;;;;;;;5.70;1.40;;;;;;;;;;5085827;28;20086;-78
2024/02/06 09:20:51;;;;;;;6.10;1.80;;;;;;;;;;5082983;28;20036;-78
2024/02/06 09:23:16;;;;;;;10.48;1.30;;;;;;;;;;5083031;28;20043;-78
2024/02/06 09:25:43;;;;;;;7.90;1.70;;;;;;;;;;5075221;28;20495;-78
2024/02/06 09:28:08;;;;;;;7.18;1.52;;;;;;;;;;5076295;28;20282;-78
2024/02/06 09:30:37;;;;;;;4.95;1.38;;;;;;;;;;5074905;28;20040;-78
2024/02/06 09:33:03;;;;;;;6.32;1.25;;;;;;;;;;5076555;28;20440;-78
2024/02/06 09:35:28;;;;;;;5.43;1.65;;;;;;;;;;5088892;28;20053;-78
2024/02/06 09:37:53;;;;;;;6.78;1.50;;;;;;;;;;5091018;28;20227;-78
2024/02/06 09:40:18;;;;;;;8.20;1.50;;;;;;;;;;5088352;28;20432;-79
2024/02/06 09:42:43;;;;;;;3.08;1.05;;;;;;;;;;5079381;28;20032;-78
2024/02/06 09:45:09;;;;;;;5.63;1.35;;;;;;;;;;5077931;28;20025;-78
2024/02/06 09:47:34;;;;;;;7.45;1.35;;;;;;;;;;5082530;28;20111;-78
2024/02/06 09:50:03;;;;;;;6.18;1.33;;;;;;;;;;5078622;28;20028;-78
2024/02/06 09:52:28;;;;;;;5.05;1.92;;;;;;;;;;5083875;28;20035;-78
2024/02/06 09:54:54;;;;;;;5.97;1.30;;;;;;;;;;5085033;28;20110;-78
2024/02/06 09:57:21;;;;;;;4.75;1.33;;;;;;;;;;5075252;28;20028;-78
2024/02/06 09:59:51;;;;;;;4.32;0.88;;;;;;;;;;5080464;28;20317;-78
2024/02/06 10:02:17;;;;;;;4.45;1.02;;;;;;;;;;5085163;28;20039;-78
2024/02/06 10:04:42;;;;;;;3.75;1.17;;;;;;;;;;5090774;28;20028;-78
2024/02/06 10:07:09;;;;;;;4.07;1.23;;;;;;;;;;5087873;28;20404;-78
2024/02/06 10:09:36;;;;;;;5.68;1.17;;;;;;;;;;5087629;28;20039;-78
2024/02/06 10:12:02;;;;;;;3.80;0.80;;;;;;;;;;5084787;28;20035;-78
2024/02/06 10:14:27;;;;;;;4.57;1.10;;;;;;;;;;5084493;28;20028;-78
2024/02/06 10:16:53;;;;;;;3.90;1.02;;;;;;;;;;5084058;28;20209;-78
2024/02/06 10:19:18;;;;;;;5.70;0.90;;;;;;;;;;5089631;28;20412;-78
2024/02/06 10:21:43;;;;;;;4.38;1.00;;;;;;;;;;5089814;28;20561;-79
2024/02/06 10:24:08;;;;;;;3.65;0.90;;;;;;;;;;5085308;28;20493;-78
2024/02/06 10:26:34;;;;;;;8.80;0.90;;;;;;;;;;5076736;28;20076;-78
2024/02/06 10:29:03;;;;;;;2.20;0.60;;;;;;;;;;5080201;28;20119;-78
2024/02/06 10:31:28;;;;;;;4.85;1.27;;;;;;;;;;5080394;28;20524;-78
2024/02/06 10:33:53;;;;;;;4.97;0.95;;;;;;;;;;5081462;28;20119;-78
2024/02/06 10:36:20;;;;;;;3.13;0.73;;;;;;;;;;5079654;28;20036;-78
2024/02/06 10:38:53;;;;;;;5.07;0.90;;;;;;;;;;5078166;28;20128;-78
2024/02/06 10:41:18;;;;;;;2.92;0.88;;;;;;;;;;5082663;28;20040;-78
2024/02/06 10:43:43;;;;;;;2.73;0.90;;;;;;;;;;5079018;28;20082;-78
2024/02/06 10:46:29;;;;;;;4.45;1.20;;;;;;;;;;5093514;28;20730;-78
2024/02/06 10:49:03;;;;;;;4.55;1.00;;;;;;;;;;5087630;28;20040;-78
2024/02/06 10:51:28;;;;;;;3.20;1.10;;;;;;;;;;5086346;28;20077;-78
2024/02/06 10:53:54;;;;;;;2.40;0.90;;;;;;;;;;5083737;28;20036;-79
2024/02/06 10:56:19;;;;;;;3.05;1.00;;;;;;;;;;5073287;28;20400;-78
2024/02/06 10:58:50;;;;;;;3.70;1.10;;;;;;;;;;5083144;28;20115;-78
2024/02/06 11:01:15;;;;;;;2.63;0.82;;;;;;;;;;5086873;28;20047;-78
2024/02/06 11:03:53;;;;;;;2.45;0.88;;;;;;;;;;5089124;28;20032;-78
2024/02/06 11:06:26;;;;;;;4.35;1.08;;;;;;;;;;5080708;28;20035;-78
2024/02/06 11:08:52;;;;;;;4.47;0.82;;;;;;;;;;5077652;28;20047;-78
2024/02/06 11:11:17;;;;;;;3.85;0.80;;;;;;;;;;5076943;28;20032;-78
2024/02/06 11:13:47;;;;;;;5.53;1.25;;;;;;;;;;5087421;28;20032;-78
2024/02/06 11:16:13;;;;;;;4.32;1.10;;;;;;;;;;5088291;28;20036;-77
2024/02/06 11:18:54;;;;;;;5.25;1.23;;;;;;;;;;5082720;28;20032;-78
2024/02/06 11:21:21;;;;;;;6.20;1.40;;;;;;;;;;5075406;28;20071;-78
2024/02/06 11:23:49;;;;;;;3.78;1.10;;;;;;;;;;5080542;28;20399;-78
2024/02/06 11:26:15;;;;;;;4.85;1.08;;;;;;;;;;5083812;28;20036;-78
2024/02/06 11:28:42;;;;;;;6.15;1.60;;;;;;;;;;5087681;28;20020;-78
2024/02/06 11:31:07;;;;;;;6.65;1.15;;;;;;;;;;5084398;28;20067;-78
2024/02/06 11:33:35;;;;;;;4.25;1.15;;;;;;;;;;5083846;28;20051;-78
2024/02/06 11:36:07;;;;;;;3.85;1.30;;;;;;;;;;5076593;28;20039;-78
2024/02/06 11:38:32;;;;;;;;;;;;;;;;;;5077342;28;20519;-78
2024/02/06 11:41:07;;;;;;;4.38;1.08;;;;;;;;;;5083793;28;19912;-76
2024/02/06 11:43:32;;;;;;;5.43;1.67;;;;;;;;;;5084212;28;20030;-78
2024/02/06 11:46:01;;;;;;;3.38;1.10;;;;;;;;;;5085298;28;20114;-77
2024/02/06 11:48:26;;;;;;;3.30;1.10;;;;;;;;;;5086612;28;20397;-77
2024/02/06 11:50:51;;;;;;;4.23;1.07;;;;;;;;;;5082718;28;20032;-77
2024/02/06 11:53:17;;;;;;;2.90;0.88;;;;;;;;;;5086859;28;20278;-77
2024/02/06 11:55:45;;;;;;;5.63;1.13;;;;;;;;;;5085007;28;20549;-77
2024/02/06 11:58:11;;;;;;;7.07;2.05;;;;;;;;;;5089404;28;20020;-78
2024/02/06 12:00:36;;;;;;;2.67;0.90;;;;;;;;;;5083546;28;20028;-77
2024/02/06 12:03:02;;;;;;;3.75;1.00;;;;;;;;;;5085121;28;20552;-76
2024/02/06 12:05:35;;;;;;;3.70;1.17;;;;;;;;;;5083172;28;20035;-77
2024/02/06 12:08:01;;;;;;;3.08;1.27;;;;;;;;;;5085925;28;20024;-77
2024/02/06 12:10:27;;;;;;;3.13;0.80;;;;;;;;;;5090859;28;20032;-77
2024/02/06 12:13:01;;;;;;;4.22;0.80;;;;;;;;;;5091467;28;20115;-78
2024/02/06 12:15:29;;;;;;;4.13;1.15;;;;;;;;;;5086747;28;20077;-78
2024/02/06 12:17:55;;;;;;;3.80;1.42;;;;;;;;;;5086561;28;20039;-77
2024/02/06 12:20:21;;;;;;;3.03;0.77;;;;;;;;;;5082801;28;20028;-77
2024/02/06 12:23:00;;;;;;;2.20;0.80;;;;;;;;;;5083856;28;20053;-77
2024/02/06 12:25:26;;;;;;;5.47;1.27;;;;;;;;;;5090009;28;20037;-77
2024/02/06 12:28:01;;;;;;;4.10;1.02;;;;;;;;;;5090174;28;20039;-77
2024/02/06 12:30:30;;;;;;;3.70;0.90;;;;;;;;;;5086800;28;20099;-77
2024/02/06 12:32:59;;;;;;;4.28;1.02;;;;;;;;;;5088163;28;20039;-78
2024/02/06 12:35:25;;;;;;;5.70;1.00;;;;;;;;;;5084627;28;20068;-77
2024/02/06 12:37:50;;;;;;;5.50;1.20;;;;;;;;;;5081495;28;20505;-77
2024/02/06 12:40:19;;;;;;;1.90;0.85;;;;;;;;;;5086188;28;20149;-78
2024/02/06 12:42:50;;;;;;;2.85;1.00;;;;;;;;;;5089920;28;20121;-77
2024/02/06 12:45:16;;;;;;;3.13;1.00;;;;;;;;;;5084447;28;20028;-77
2024/02/06 12:47:42;;;;;;;3.90;1.23;;;;;;;;;;5085824;28;20511;-78
2024/02/06 12:50:10;;;;;;;6.28;1.40;;;;;;;;;;5084703;28;20028;-77
2024/02/06 12:52:35;;;;;;;4.75;1.50;;;;;;;;;;5087592;28;20043;-77
2024/02/06 12:55:01;;;;;;;7.13;1.23;;;;;;;;;;5082931;28;20032;-77
2024/02/06 12:57:26;;;;;;;2.58;0.70;;;;;;;;;;5079182;28;20025;-77
2024/02/06 12:59:51;;;;;;;3.30;0.90;;;;;;;;;;5085812;28;20649;-78
2024/02/06 13:02:16;;;;;;;5.90;1.42;;;;;;;;;;5086503;28;20070;-77
2024/02/06 13:04:45;;;;;;;3.63;1.33;;;;;;;;;;5089039;28;20070;-77
2024/02/06 13:07:21;;;;;;;4.25;1.58;;;;;;;;;;5081580;28;20024;-77
2024/02/06 13:09:46;;;;;;;5.45;1.10;;;;;;;;;;5083734;28;20511;-76
2024/02/06 13:12:11;;;;;;;4.72;1.35;;;;;;;;;;5083147;28;20024;-76
2024/02/06 13:14:36;;;;;;;4.38;1.35;;;;;;;;;;5083814;28;20032;-76
2024/02/06 13:17:02;;;;;;;3.90;0.70;;;;;;;;;;5080983;28;20032;-76
2024/02/06 13:19:29;;;;;;;4.78;1.50;;;;;;;;;;5088136;28;20492;-75
2024/02/06 13:21:55;;;;;;;6.00;1.73;;;;;;;;;;5089552;28;20099;-76
2024/02/06 13:24:20;;;;;;;4.53;1.27;;;;;;;;;;5085317;28;20037;-76
2024/02/06 13:26:45;;;;;;;3.07;1.00;;;;;;;;;;5086482;28;20036;-76
2024/02/06 13:29:10;;;;;;;4.10;1.13;;;;;;;;;;5081877;28;20375;-76
2024/02/06 13:31:36;;;;;;;5.00;1.15;;;;;;;;;;5087314;28;20487;-76
2024/02/06 13:34:01;;;;;;;4.97;1.70;;;;;;;;;;5089416;28;20145;-76
2024/02/06 13:36:27;;;;;;;2.58;0.60;;;;;;;;;;5087490;28;20036;-76
2024/02/06 13:38:52;;;;;;;2.75;0.75;;;;;;;;;;5085793;28;20020;-76
2024/02/06 13:41:18;;;;;;;5.10;1.10;;;;;;;;;;5081178;28;20116;-76
2024/02/06 13:43:43;;;;;;;2.38;0.70;;;;;;;;;;5083587;28;20461;-76
2024/02/06 13:46:09;;;;;;;2.58;0.80;;;;;;;;;;5087336;28;20032;-76
2024/02/06 13:48:35;;;;;;;2.40;0.70;;;;;;;;;;5083303;28;20899;-77
2024/02/06 13:51:00;;;;;;;1.40;0.52;;;;;;;;;;5087152;28;20032;-77
2024/02/06 13:53:25;;;;;;;5.57;1.10;;;;;;;;;;5086747;28;20132;-77
2024/02/06 13:55:50;;;;;;;4.43;1.25;;;;;;;;;;5083424;28;20403;-77
2024/02/06 13:58:15;;;;;;;2.63;1.05;;;;;;;;;;5080958;28;20028;-77
2024/02/06 14:00:42;;;;;;;3.25;0.80;;;;;;;;;;5088605;28;20103;-77
2024/02/06 14:03:07;;;;;;;5.72;1.00;;;;;;;;;;5087677;28;20032;-77
2024/02/06 14:05:33;;;;;;;1.92;0.85;;;;;;;;;;5086525;28;20035;-77
2024/02/06 14:07:58;;;;;;;4.22;0.77;;;;;;;;;;5087405;28;20032;-77
2024/02/06 14:10:24;;;;;;;3.65;0.80;;;;;;;;;;5082307;28;20086;-77
2024/02/06 14:12:49;;;;;;;2.42;0.70;;;;;;;;;;5083004;28;20408;-77
2024/02/06 14:15:15;;;;;;;3.42;0.90;;;;;;;;;;5088920;28;20077;-77
2024/02/06 14:17:42;;;;;;;8.13;1.02;;;;;;;;;;5088414;28;20500;-77
2024/02/06 14:20:07;;;;;;;2.47;1.00;;;;;;;;;;5083458;28;20065;-77
2024/02/06 14:22:32;;;;;;;2.72;0.70;;;;;;;;;;5084670;28;20032;-77
2024/02/06 14:24:57;;;;;;;3.53;0.88;;;;;;;;;;5078806;28;20024;-77
2024/02/06 14:27:23;;;;;;;2.67;0.90;;;;;;;;;;5084453;28;20028;-77
2024/02/06 14:29:49;;;;;;;5.80;1.58;;;;;;;;;;5089011;28;20368;-77
2024/02/06 14:32:14;;;;;;;3.05;0.82;;;;;;;;;;5087811;28;20111;-77